Time;durP1;ratioP1;P1;durP2;ratioP2;P2;SDS_P1;SDS_P2;PMS_P1;PMS_P2;Temp;Humidity;BMP_temperature;BMP_pressure;BME280_temperature;BME280_humidity;BME280_pressure;Samples;Min_cycle;Max_cycle;Signal;HPM_P1;HPM_P2
2021/05/10 00:01:23;;;;;;;2.15;0.93;;;20.40;91.20;;;;;;5073570;28;20484;-73
2021/05/10 00:03:49;;;;;;;2.75;0.90;;;20.40;91.20;;;;;;5072847;28;20667;-73
2021/05/10 00:06:15;;;;;;;2.72;1.00;;;20.40;91.00;;;;;;5073082;28;20125;-73
2021/05/10 00:08:42;;;;;;;3.00;1.00;;;20.40;91.10;;;;;;5072999;28;20063;-73
2021/05/10 00:11:08;;;;;;;3.50;1.42;;;20.40;91.00;;;;;;5073285;28;20048;-73
2021/05/10 00:13:35;;;;;;;2.33;1.17;;;20.40;91.10;;;;;;5072759;28;20064;-73
2021/05/10 00:16:01;;;;;;;2.50;0.98;;;20.40;91.10;;;;;;5070823;28;20116;-72
2021/05/10 00:18:26;;;;;;;2.10;1.10;;;20.40;91.20;;;;;;5073064;28;20103;-73
2021/05/10 00:20:52;;;;;;;2.63;1.13;;;20.40;91.30;;;;;;5071255;28;20473;-72
2021/05/10 00:23:18;;;;;;;3.45;1.30;;;20.40;91.20;;;;;;5072349;28;20070;-73
2021/05/10 00:25:45;;;;;;;3.42;1.45;;;20.30;91.10;;;;;;5072096;28;20028;-73
2021/05/10 00:28:12;;;;;;;2.92;1.17;;;20.30;91.10;;;;;;5072509;28;20028;-73
2021/05/10 00:30:38;;;;;;;3.33;0.93;;;20.30;91.00;;;;;;5072736;28;20029;-73
2021/05/10 00:33:04;;;;;;;3.38;1.30;;;20.30;91.50;;;;;;5072654;28;20020;-73
2021/05/10 00:35:30;;;;;;;2.83;1.30;;;20.30;91.60;;;;;;5072476;28;20074;-73
2021/05/10 00:37:57;;;;;;;1.52;0.90;;;20.30;91.50;;;;;;5072156;28;20036;-73
2021/05/10 00:40:26;;;;;;;1.83;0.95;;;20.30;91.40;;;;;;5072739;28;20052;-73
2021/05/10 00:42:51;;;;;;;4.10;1.15;;;20.30;91.40;;;;;;5072354;28;20071;-73
2021/05/10 00:45:18;;;;;;;2.30;1.10;;;20.30;91.20;;;;;;5072006;28;20052;-73
2021/05/10 00:47:44;;;;;;;3.00;1.20;;;20.30;91.20;;;;;;5072207;28;20073;-73
2021/05/10 00:50:12;;;;;;;3.25;1.10;;;20.30;91.50;;;;;;5071966;28;20032;-73
2021/05/10 00:52:38;;;;;;;1.83;1.25;;;20.20;91.60;;;;;;5071379;28;20016;-73
2021/05/10 00:55:06;;;;;;;2.83;1.45;;;20.20;91.40;;;;;;5072011;28;20384;-73
2021/05/10 00:57:36;;;;;;;1.95;1.10;;;20.20;90.90;;;;;;5072059;28;20028;-73
2021/05/10 01:00:03;;;;;;;3.05;1.20;;;20.20;90.90;;;;;;5072335;28;20393;-73
2021/05/10 01:02:29;;;;;;;2.13;1.25;;;20.20;91.10;;;;;;5070402;28;20021;-73
2021/05/10 01:04:54;;;;;;;2.25;1.10;;;20.20;91.10;;;;;;5071493;28;20031;-73
2021/05/10 01:07:20;;;;;;;1.95;1.00;;;20.20;91.20;;;;;;5072041;28;20098;-73
2021/05/10 01:09:46;;;;;;;1.55;0.88;;;20.20;91.20;;;;;;5071601;28;20028;-73
2021/05/10 01:12:12;;;;;;;2.95;1.10;;;20.20;91.00;;;;;;5071949;28;20063;-73
2021/05/10 01:14:37;;;;;;;3.60;1.10;;;20.20;90.80;;;;;;5070729;28;20020;-73
2021/05/10 01:17:03;;;;;;;2.55;1.10;;;20.20;90.70;;;;;;5071390;28;20040;-73
2021/05/10 01:19:29;;;;;;;3.45;1.10;;;20.20;91.00;;;;;;5071560;28;20402;-73
2021/05/10 01:21:59;;;;;;;3.08;1.23;;;20.20;91.10;;;;;;5071662;28;20021;-73
2021/05/10 01:24:26;;;;;;;3.08;1.20;;;20.20;91.00;;;;;;5071597;28;20103;-73
2021/05/10 01:26:53;;;;;;;3.63;1.73;;;20.20;91.10;;;;;;5070701;28;20036;-73
2021/05/10 01:29:18;;;;;;;2.13;1.30;;;20.10;91.10;;;;;;5071416;28;20098;-73
2021/05/10 01:31:44;;;;;;;3.53;1.20;;;20.20;91.10;;;;;;5070771;28;20446;-73
2021/05/10 01:34:10;;;;;;;4.50;1.33;;;20.20;91.30;;;;;;5071711;28;20028;-73
2021/05/10 01:36:36;;;;;;;3.72;1.20;;;20.10;91.50;;;;;;5071912;28;20476;-73
2021/05/10 01:39:03;;;;;;;2.70;1.15;;;20.10;91.40;;;;;;5071717;28;20066;-73
2021/05/10 01:41:28;;;;;;;1.23;0.80;;;20.10;91.40;;;;;;5070963;28;20029;-73
2021/05/10 01:43:54;;;;;;;3.10;1.65;;;20.10;91.50;;;;;;5070693;28;20146;-73
2021/05/10 01:46:19;;;;;;;1.48;1.08;;;20.10;91.40;;;;;;5070898;28;20048;-73
2021/05/10 01:48:45;;;;;;;1.58;0.82;;;20.10;91.70;;;;;;5071081;28;20024;-73
2021/05/10 01:51:11;;;;;;;2.60;1.13;;;20.10;91.60;;;;;;5070466;28;20101;-73
2021/05/10 01:53:36;;;;;;;2.30;1.10;;;20.10;91.70;;;;;;5071713;28;20032;-73
2021/05/10 01:56:02;;;;;;;3.00;1.20;;;20.10;91.50;;;;;;5071647;28;20031;-73
2021/05/10 01:58:28;;;;;;;1.52;1.08;;;20.10;91.40;;;;;;5070769;28;20032;-73
2021/05/10 02:00:54;;;;;;;3.70;1.45;;;20.10;91.30;;;;;;5070576;28;20032;-73
2021/05/10 02:03:22;;;;;;;1.67;1.05;;;20.10;90.90;;;;;;5070032;28;20025;-73
2021/05/10 02:05:50;;;;;;;3.30;1.10;;;20.10;91.20;;;;;;5070939;28;20024;-72
2021/05/10 02:08:16;;;;;;;4.78;1.13;;;20.10;91.00;;;;;;5069407;28;20045;-73
2021/05/10 02:10:52;;;;;;;2.28;1.25;;;20.10;91.20;;;;;;5070574;28;20361;-73
2021/05/10 02:13:24;;;;;;;2.88;1.25;;;20.00;91.20;;;;;;5070845;28;20493;-73
2021/05/10 02:15:53;;;;;;;5.13;1.40;;;20.10;91.40;;;;;;5070171;28;20040;-72
2021/05/10 02:18:22;;;;;;;3.20;1.23;;;20.00;91.60;;;;;;5070699;28;20039;-73
2021/05/10 02:20:49;;;;;;;3.35;1.38;;;20.00;91.80;;;;;;5069910;28;20024;-73
2021/05/10 02:23:33;;;;;;;4.18;1.20;;;20.00;92.00;;;;;;5070368;28;20032;-73
2021/05/10 02:26:01;;;;;;;2.63;1.17;;;20.00;92.00;;;;;;5069123;28;20484;-72
2021/05/10 02:28:28;;;;;;;2.55;1.20;;;20.00;92.00;;;;;;5070951;28;20035;-73
2021/05/10 02:31:00;;;;;;;3.35;1.10;;;20.00;92.10;;;;;;5069972;28;20024;-73
2021/05/10 02:33:28;;;;;;;2.22;1.10;;;20.00;92.20;;;;;;5070921;28;20085;-73
2021/05/10 02:35:54;;;;;;;2.78;1.33;;;20.00;92.30;;;;;;5070353;28;20115;-73
2021/05/10 02:38:21;;;;;;;1.65;0.95;;;20.00;92.00;;;;;;5070529;28;20123;-73
2021/05/10 02:40:48;;;;;;;2.35;1.05;;;19.90;92.10;;;;;;5070453;28;20055;-72
2021/05/10 02:43:15;;;;;;;2.72;1.10;;;19.90;92.30;;;;;;5070527;28;20024;-73
2021/05/10 02:45:42;;;;;;;2.00;1.02;;;19.90;92.50;;;;;;5070403;28;20096;-73
2021/05/10 02:48:08;;;;;;;2.10;1.10;;;19.90;92.30;;;;;;5069257;28;20025;-73
2021/05/10 02:50:34;;;;;;;1.45;1.05;;;19.90;92.40;;;;;;5070205;28;20027;-73
2021/05/10 02:53:01;;;;;;;3.30;1.30;;;19.90;92.20;;;;;;5070693;28;20024;-73
2021/05/10 02:55:27;;;;;;;3.55;0.80;;;19.90;92.40;;;;;;5070839;28;20047;-73
2021/05/10 02:57:55;;;;;;;3.42;1.17;;;19.90;92.70;;;;;;5069121;28;20024;-73
2021/05/10 03:00:24;;;;;;;2.13;1.08;;;19.90;92.50;;;;;;5070167;28;20033;-73
2021/05/10 03:02:55;;;;;;;2.83;1.27;;;19.90;92.70;;;;;;5070454;28;20032;-72
2021/05/10 03:05:20;;;;;;;1.80;0.90;;;19.90;92.60;;;;;;5069977;28;20460;-73
2021/05/10 03:07:46;;;;;;;2.72;1.30;;;19.80;92.50;;;;;;5068839;28;20060;-73
2021/05/10 03:10:17;;;;;;;2.90;1.02;;;19.80;92.30;;;;;;5069815;28;20488;-73
2021/05/10 03:12:44;;;;;;;2.03;1.05;;;19.80;92.50;;;;;;5069574;28;20033;-72
2021/05/10 03:15:13;;;;;;;2.85;0.88;;;19.90;93.00;;;;;;5069637;28;20425;-73
2021/05/10 03:17:39;;;;;;;2.95;1.13;;;19.90;92.60;;;;;;5069492;28;20539;-73
2021/05/10 03:20:09;;;;;;;2.95;1.13;;;19.80;92.30;;;;;;5070484;28;20069;-72
2021/05/10 03:22:35;;;;;;;2.88;0.90;;;19.80;92.60;;;;;;5069977;28;20028;-73
2021/05/10 03:25:01;;;;;;;1.33;0.77;;;19.80;92.60;;;;;;5069043;28;20036;-73
2021/05/10 03:27:26;;;;;;;2.50;0.93;;;19.80;92.50;;;;;;5070987;28;20375;-73
2021/05/10 03:29:52;;;;;;;1.85;1.05;;;19.80;92.70;;;;;;5073975;28;20373;-73
2021/05/10 03:32:18;;;;;;;1.77;1.10;;;19.80;92.70;;;;;;5073550;28;20103;-73
2021/05/10 03:34:44;;;;;;;2.70;1.00;;;19.80;92.50;;;;;;5073195;28;20508;-73
2021/05/10 03:37:09;;;;;;;2.35;1.10;;;19.80;92.50;;;;;;5073827;28;20025;-73
2021/05/10 03:39:35;;;;;;;2.58;1.00;;;19.80;92.50;;;;;;5073801;28;20024;-73
2021/05/10 03:42:00;;;;;;;2.30;0.90;;;19.80;92.40;;;;;;5073668;28;20423;-73
2021/05/10 03:44:26;;;;;;;2.13;1.13;;;19.70;92.50;;;;;;5072694;28;20439;-73
2021/05/10 03:46:52;;;;;;;2.05;1.00;;;19.70;92.40;;;;;;5073761;28;20393;-73
2021/05/10 03:49:17;;;;;;;2.45;0.82;;;19.80;92.70;;;;;;5073444;28;20408;-73
2021/05/10 03:51:43;;;;;;;2.40;1.15;;;19.80;92.50;;;;;;5072824;28;20054;-73
2021/05/10 03:54:09;;;;;;;1.38;0.73;;;19.70;92.70;;;;;;5073166;28;20032;-73
2021/05/10 03:56:34;;;;;;;2.78;0.88;;;19.70;92.60;;;;;;5073569;28;20520;-72
2021/05/10 03:59:00;;;;;;;1.48;0.90;;;19.70;92.50;;;;;;5073220;28;20029;-73
2021/05/10 04:01:25;;;;;;;1.42;0.80;;;19.70;92.70;;;;;;5073418;28;20036;-73
2021/05/10 04:04:04;;;;;;;2.35;1.33;;;19.70;92.60;;;;;;5072896;28;20131;-72
2021/05/10 04:09:12;;;;;;;2.08;0.85;;;19.70;92.10;;;;;;5073249;28;20036;-72
2021/05/10 04:14:22;;;;;;;1.55;0.80;;;19.70;92.50;;;;;;5072439;28;20043;-72
2021/05/10 04:16:48;;;;;;;2.10;0.90;;;19.70;92.60;;;;;;5072341;28;20021;-72
2021/05/10 04:19:13;;;;;;;1.65;0.82;;;19.60;92.70;;;;;;5072294;28;20130;-72
2021/05/10 04:21:39;;;;;;;1.10;0.60;;;19.60;92.70;;;;;;5072830;28;20012;-72
2021/05/10 04:24:05;;;;;;;1.60;0.70;;;19.60;92.70;;;;;;5073301;28;20464;-73
2021/05/10 04:26:30;;;;;;;2.38;0.90;;;19.60;92.90;;;;;;5072484;28;20070;-72
2021/05/10 04:28:56;;;;;;;3.25;1.00;;;19.60;92.90;;;;;;5072721;28;20028;-73
2021/05/10 04:31:22;;;;;;;1.10;0.80;;;19.60;92.80;;;;;;5072232;28;20473;-73
2021/05/10 04:33:47;;;;;;;1.42;0.90;;;19.60;92.90;;;;;;5072221;28;20016;-73
2021/05/10 04:36:13;;;;;;;1.30;0.70;;;19.60;92.90;;;;;;5072658;28;20153;-72
2021/05/10 04:38:42;;;;;;;3.78;1.20;;;19.60;92.80;;;;;;5072397;28;20052;-73
2021/05/10 04:41:08;;;;;;;1.48;0.98;;;19.60;93.00;;;;;;5071364;28;20051;-72
2021/05/10 04:43:33;;;;;;;1.95;0.77;;;19.60;93.10;;;;;;5071380;28;20495;-72
2021/05/10 04:46:00;;;;;;;3.08;0.80;;;19.60;93.00;;;;;;5072064;28;20032;-72
2021/05/10 04:48:27;;;;;;;1.40;0.98;;;19.60;93.00;;;;;;5072024;28;20039;-73
2021/05/10 04:50:53;;;;;;;3.38;0.80;;;19.60;93.10;;;;;;5072407;28;20013;-72
2021/05/10 04:53:18;;;;;;;2.92;0.88;;;19.50;93.10;;;;;;5072156;28;20067;-72
2021/05/10 04:55:44;;;;;;;2.10;0.90;;;19.50;93.10;;;;;;5072350;28;20515;-73
2021/05/10 04:58:10;;;;;;;3.03;0.80;;;19.60;93.20;;;;;;5071960;28;20044;-72
2021/05/10 05:00:35;;;;;;;1.65;0.77;;;19.50;93.40;;;;;;5071619;28;20021;-72
2021/05/10 05:03:01;;;;;;;2.38;0.90;;;19.50;93.40;;;;;;5070191;28;20119;-72
2021/05/10 05:05:26;;;;;;;1.60;0.73;;;19.50;93.30;;;;;;5071496;28;20499;-72
2021/05/10 05:07:52;;;;;;;2.42;0.90;;;19.50;93.30;;;;;;5071937;28;20081;-73
2021/05/10 05:10:18;;;;;;;1.85;0.68;;;19.50;93.30;;;;;;5071647;28;20029;-73
2021/05/10 05:12:48;;;;;;;1.50;0.90;;;19.50;93.30;;;;;;5071550;28;20499;-73
2021/05/10 05:15:15;;;;;;;2.65;1.00;;;19.50;93.30;;;;;;5071390;28;20037;-73
2021/05/10 05:17:41;;;;;;;1.88;0.90;;;19.50;93.10;;;;;;5069506;28;20024;-72
2021/05/10 05:20:08;;;;;;;4.05;1.13;;;19.50;93.10;;;;;;5072224;28;20503;-73
2021/05/10 05:22:37;;;;;;;1.35;0.60;;;19.50;93.10;;;;;;5071481;28;20047;-73
2021/05/10 05:25:07;;;;;;;1.20;0.65;;;19.50;92.90;;;;;;5071842;28;20472;-73
2021/05/10 05:27:34;;;;;;;1.95;0.73;;;19.50;92.90;;;;;;5070759;28;20028;-73
2021/05/10 05:29:59;;;;;;;1.17;0.70;;;19.50;93.10;;;;;;5071511;28;20097;-72
2021/05/10 05:32:25;;;;;;;1.85;0.88;;;19.50;93.00;;;;;;5070625;28;20056;-73
2021/05/10 05:34:51;;;;;;;2.80;0.85;;;19.50;93.00;;;;;;5071564;28;20365;-72
2021/05/10 05:37:17;;;;;;;0.82;0.55;;;19.50;93.00;;;;;;5070789;28;20032;-73
2021/05/10 05:39:43;;;;;;;1.33;0.70;;;19.50;93.00;;;;;;5071547;28;20042;-72
2021/05/10 05:42:08;;;;;;;3.20;0.90;;;19.50;93.00;;;;;;5071302;28;20040;-72
2021/05/10 05:44:37;;;;;;;1.67;0.80;;;19.50;92.70;;;;;;5071281;28;20094;-73
2021/05/10 05:47:04;;;;;;;1.20;0.63;;;19.50;92.80;;;;;;5070303;28;20028;-73
2021/05/10 05:49:34;;;;;;;3.28;0.70;;;19.50;93.10;;;;;;5070513;28;20028;-73
2021/05/10 05:52:03;;;;;;;0.93;0.70;;;19.50;93.00;;;;;;5070025;28;20489;-74
2021/05/10 05:54:30;;;;;;;2.50;0.60;;;19.50;93.10;;;;;;5070661;28;20016;-73
2021/05/10 05:56:55;;;;;;;1.50;0.70;;;19.50;92.90;;;;;;5070173;28;20107;-73
2021/05/10 05:59:21;;;;;;;1.70;0.90;;;19.40;92.90;;;;;;5070664;28;20475;-74
2021/05/10 06:01:48;;;;;;;2.70;0.98;;;19.40;92.90;;;;;;5070329;28;20047;-73
2021/05/10 06:04:13;;;;;;;1.80;0.80;;;19.50;92.70;;;;;;5069732;28;20028;-72
2021/05/10 06:06:39;;;;;;;2.10;0.75;;;19.40;92.50;;;;;;5070753;28;20558;-75
2021/05/10 06:09:08;;;;;;;2.03;1.08;;;19.40;92.80;;;;;;5070849;28;20052;-74
2021/05/10 06:11:34;;;;;;;1.10;0.63;;;19.50;92.90;;;;;;5070418;28;20190;-75
2021/05/10 06:14:00;;;;;;;1.17;0.65;;;19.50;93.10;;;;;;5070566;28;20028;-75
2021/05/10 06:16:30;;;;;;;1.75;0.70;;;19.40;92.70;;;;;;5069407;28;20030;-73
2021/05/10 06:18:56;;;;;;;1.77;1.00;;;19.50;92.20;;;;;;5070641;28;20028;-73
2021/05/10 06:21:22;;;;;;;6.53;0.77;;;19.50;92.90;;;;;;5070778;28;20487;-73
2021/05/10 06:23:49;;;;;;;1.27;0.60;;;19.60;92.60;;;;;;5070799;28;20107;-73
2021/05/10 06:26:15;;;;;;;2.20;0.80;;;19.60;92.80;;;;;;5070150;28;20016;-74
2021/05/10 06:28:43;;;;;;;2.78;0.88;;;19.70;92.70;;;;;;5070822;28;20028;-74
2021/05/10 06:31:10;;;;;;;3.80;0.98;;;19.80;92.90;;;;;;5070687;28;20035;-74
2021/05/10 06:33:36;;;;;;;3.15;0.90;;;19.90;93.40;;;;;;5070091;28;20051;-75
2021/05/10 06:36:02;;;;;;;2.70;1.48;;;19.90;92.70;;;;;;5070260;28;20108;-74
2021/05/10 06:38:28;;;;;;;4.82;1.30;;;20.00;92.90;;;;;;5069205;28;20116;-74
2021/05/10 06:40:53;;;;;;;6.85;1.02;;;20.00;92.80;;;;;;5070450;28;20508;-74
2021/05/10 06:43:19;;;;;;;3.03;1.10;;;20.10;92.30;;;;;;5070069;28;20108;-74
2021/05/10 06:45:45;;;;;;;2.50;1.08;;;20.10;92.40;;;;;;5070154;28;20506;-73
2021/05/10 06:48:10;;;;;;;2.50;1.08;;;20.20;92.60;;;;;;5070008;28;20123;-73
2021/05/10 06:50:36;;;;;;;7.50;1.60;;;20.20;92.10;;;;;;5070101;28;20029;-74
2021/05/10 06:53:01;;;;;;;1.92;0.98;;;20.20;91.70;;;;;;5069909;28;20048;-75
2021/05/10 06:55:27;;;;;;;2.63;1.00;;;20.30;91.80;;;;;;5070195;28;20486;-73
2021/05/10 06:57:53;;;;;;;3.20;1.10;;;20.30;91.60;;;;;;5070066;28;20370;-74
2021/05/10 07:00:19;;;;;;;3.20;1.15;;;20.30;91.60;;;;;;5068767;28;20461;-75
2021/05/10 07:02:44;;;;;;;4.10;0.90;;;20.40;91.60;;;;;;5071134;28;20106;-74
2021/05/10 07:05:10;;;;;;;3.05;0.93;;;20.30;91.30;;;;;;5073356;28;20063;-75
2021/05/10 07:07:36;;;;;;;4.70;1.17;;;20.40;91.00;;;;;;5072439;28;20036;-74
2021/05/10 07:10:02;;;;;;;2.75;1.05;;;20.40;91.10;;;;;;5073252;28;20037;-74
2021/05/10 07:12:28;;;;;;;3.90;0.90;;;20.40;90.80;;;;;;5073977;28;20021;-76
2021/05/10 07:14:54;;;;;;;3.17;1.17;;;20.40;90.90;;;;;;5072251;28;20078;-74
2021/05/10 07:17:19;;;;;;;3.47;1.10;;;20.40;90.70;;;;;;5073301;28;20099;-75
2021/05/10 07:19:45;;;;;;;1.55;0.70;;;20.30;90.40;;;;;;5073092;28;20076;-75
2021/05/10 07:22:10;;;;;;;2.80;0.90;;;20.40;90.70;;;;;;5073563;28;20063;-75
2021/05/10 07:24:36;;;;;;;4.05;0.80;;;20.30;90.50;;;;;;5072787;28;20028;-74
2021/05/10 07:27:02;;;;;;;1.75;0.98;;;20.30;90.60;;;;;;5072287;28;20046;-74
2021/05/10 07:29:28;;;;;;;3.83;0.80;;;20.40;90.60;;;;;;5073497;28;20029;-74
2021/05/10 07:31:53;;;;;;;2.33;1.00;;;20.40;90.20;;;;;;5072379;28;20028;-75
2021/05/10 07:34:21;;;;;;;3.65;0.70;;;20.40;90.00;;;;;;5073580;28;20021;-74
2021/05/10 07:36:47;;;;;;;3.97;1.00;;;20.40;90.00;;;;;;5073844;28;20064;-74
2021/05/10 07:39:12;;;;;;;2.20;1.00;;;20.40;89.80;;;;;;5074116;28;20064;-74
2021/05/10 07:41:38;;;;;;;4.63;1.00;;;20.50;89.60;;;;;;5073648;28;20109;-75
2021/05/10 07:44:04;;;;;;;2.63;0.90;;;20.50;89.60;;;;;;5072117;28;20048;-74
2021/05/10 07:46:30;;;;;;;4.32;0.93;;;20.50;90.00;;;;;;5073612;28;20017;-75
2021/05/10 07:48:56;;;;;;;2.33;0.80;;;20.50;89.70;;;;;;5073796;28;20032;-74
2021/05/10 07:51:21;;;;;;;1.65;0.90;;;20.40;89.30;;;;;;5073479;28;20020;-74
2021/05/10 07:53:47;;;;;;;1.90;1.00;;;20.40;89.00;;;;;;5073348;28;20107;-74
2021/05/10 07:56:13;;;;;;;5.72;1.27;;;20.40;88.90;;;;;;5073569;28;20023;-74
2021/05/10 07:58:42;;;;;;;3.10;1.02;;;20.50;88.60;;;;;;5073566;28;20392;-74
2021/05/10 08:01:08;;;;;;;2.40;0.80;;;20.50;88.20;;;;;;5073103;28;20032;-74
2021/05/10 08:03:34;;;;;;;2.47;0.90;;;20.50;87.70;;;;;;5072587;28;20081;-75
2021/05/10 08:06:01;;;;;;;4.00;0.80;;;20.40;87.40;;;;;;5072726;28;20040;-74
2021/05/10 08:08:28;;;;;;;4.30;1.10;;;20.50;87.30;;;;;;5072976;28;20116;-73
2021/05/10 08:10:55;;;;;;;2.25;0.98;;;20.50;87.30;;;;;;5073250;28;20488;-74
2021/05/10 08:13:21;;;;;;;2.30;0.60;;;20.50;87.00;;;;;;5071793;28;20044;-74
2021/05/10 08:15:46;;;;;;;2.80;1.05;;;20.50;86.40;;;;;;5072531;28;20465;-74
2021/05/10 08:18:13;;;;;;;3.53;1.10;;;20.50;86.00;;;;;;5073378;28;20028;-74
2021/05/10 08:20:41;;;;;;;2.75;0.90;;;20.60;85.80;;;;;;5073473;28;20524;-74
2021/05/10 08:23:07;;;;;;;5.70;0.98;;;20.60;85.80;;;;;;5072283;28;20036;-74
2021/05/10 08:25:33;;;;;;;2.97;1.00;;;20.60;85.50;;;;;;5072439;28;20025;-74
2021/05/10 08:27:58;;;;;;;4.15;1.10;;;20.60;85.30;;;;;;5072429;28;20420;-74
2021/05/10 08:30:24;;;;;;;1.85;1.10;;;20.60;85.30;;;;;;5072766;28;20103;-74
2021/05/10 08:32:51;;;;;;;3.83;1.08;;;20.60;85.40;;;;;;5072884;28;20029;-73
2021/05/10 08:35:17;;;;;;;1.83;0.90;;;20.60;84.90;;;;;;5072165;28;20039;-73
2021/05/10 08:37:42;;;;;;;2.28;1.00;;;20.60;84.70;;;;;;5071206;28;20021;-74
2021/05/10 08:40:08;;;;;;;2.63;0.90;;;20.50;84.70;;;;;;5072725;28;20037;-74
2021/05/10 08:42:35;;;;;;;3.65;0.85;;;20.50;85.00;;;;;;5072450;28;20020;-73
2021/05/10 08:45:00;;;;;;;2.45;0.93;;;20.50;85.10;;;;;;5072779;28;20036;-74
2021/05/10 08:47:33;;;;;;;3.63;1.30;;;20.50;85.00;;;;;;5072419;28;20093;-74
2021/05/10 08:50:04;;;;;;;2.85;1.20;;;20.50;84.60;;;;;;5072631;28;20539;-73
2021/05/10 08:52:30;;;;;;;2.30;0.80;;;20.50;84.40;;;;;;5072274;28;20027;-74
2021/05/10 08:54:55;;;;;;;5.00;1.05;;;20.50;84.20;;;;;;5071636;28;20021;-74
2021/05/10 08:57:21;;;;;;;5.47;1.13;;;20.50;84.40;;;;;;5071747;28;20067;-74
2021/05/10 08:59:47;;;;;;;3.40;1.00;;;20.50;84.40;;;;;;5072250;28;20404;-74
2021/05/10 09:02:13;;;;;;;2.47;0.98;;;20.50;83.60;;;;;;5071387;28;20063;-73
2021/05/10 09:04:40;;;;;;;3.95;1.15;;;20.50;83.50;;;;;;5072267;28;20029;-73
2021/05/10 09:07:13;;;;;;;4.55;1.10;;;20.50;83.20;;;;;;5071738;28;20032;-73
2021/05/10 09:09:52;;;;;;;3.35;0.90;;;20.50;82.90;;;;;;5071378;28;20028;-74
2021/05/10 09:12:19;;;;;;;3.53;1.13;;;20.50;82.60;;;;;;5070443;28;20059;-74
2021/05/10 09:14:45;;;;;;;2.40;1.05;;;20.50;82.50;;;;;;5070671;28;20027;-74
2021/05/10 09:17:10;;;;;;;3.13;1.00;;;20.50;82.20;;;;;;5072006;28;20029;-74
2021/05/10 09:19:43;;;;;;;2.95;1.20;;;20.50;82.30;;;;;;5071483;28;20039;-75
2021/05/10 09:22:09;;;;;;;2.83;1.23;;;20.60;82.20;;;;;;5072387;28;20021;-74
2021/05/10 09:24:50;;;;;;;3.72;0.98;;;20.50;82.10;;;;;;5070685;28;20036;-74
2021/05/10 09:27:23;;;;;;;2.78;1.10;;;20.50;82.10;;;;;;5071407;28;20503;-74
2021/05/10 09:29:50;;;;;;;5.00;1.20;;;20.50;82.00;;;;;;5071653;28;20107;-73
2021/05/10 09:32:26;;;;;;;4.55;1.30;;;20.60;81.90;;;;;;5071301;28;20021;-75
2021/05/10 09:35:19;;;;;;;4.00;1.15;;;20.50;81.70;;;;;;5071640;28;20024;-73
2021/05/10 09:37:52;;;;;;;4.97;1.33;;;20.50;81.70;;;;;;5071487;28;20020;-74
2021/05/10 09:40:18;;;;;;;5.22;1.58;;;20.50;81.70;;;;;;5070745;28;20036;-74
2021/05/10 09:42:51;;;;;;;3.60;1.45;;;20.50;81.50;;;;;;5070940;28;20040;-73
2021/05/10 09:45:38;;;;;;;3.00;1.20;;;20.50;81.20;;;;;;5070950;28;20166;-73
2021/05/10 09:48:07;;;;;;;3.90;1.60;;;20.60;81.00;;;;;;5071464;28;20378;-73
2021/05/10 09:50:39;;;;;;;4.32;1.38;;;20.60;80.80;;;;;;5071079;28;20024;-73
2021/05/10 09:53:06;;;;;;;7.45;1.00;;;20.60;80.60;;;;;;5070350;28;20032;-74
2021/05/10 09:55:59;;;;;;;2.15;0.85;;;20.70;80.40;;;;;;5070704;28;20025;-74
2021/05/10 09:58:38;;;;;;;2.95;0.80;;;20.60;80.10;;;;;;5068104;28;20057;-74
2021/05/10 10:01:04;;;;;;;4.32;1.42;;;20.60;80.10;;;;;;5071240;28;20108;-74
2021/05/10 10:03:41;;;;;;;3.22;0.73;;;20.60;80.00;;;;;;5070759;28;20082;-74
2021/05/10 10:06:09;;;;;;;2.88;1.38;;;20.60;79.90;;;;;;5070569;28;20036;-74
2021/05/10 10:08:36;;;;;;;3.13;0.90;;;20.60;80.00;;;;;;5070177;28;20547;-74
2021/05/10 10:11:04;;;;;;;4.00;1.17;;;20.60;79.80;;;;;;5070606;28;20119;-74
2021/05/10 10:13:30;;;;;;;3.78;1.40;;;20.60;79.80;;;;;;5070276;28;20020;-74
2021/05/10 10:15:57;;;;;;;2.38;0.93;;;20.70;79.50;;;;;;5069718;28;20039;-74
2021/05/10 10:18:24;;;;;;;3.13;1.30;;;20.60;79.40;;;;;;5070111;28;20508;-75
2021/05/10 10:20:51;;;;;;;6.97;1.63;;;20.60;79.30;;;;;;5070261;28;20492;-74
2021/05/10 10:23:20;;;;;;;4.00;1.02;;;20.50;79.10;;;;;;5070850;28;20390;-75
2021/05/10 10:25:46;;;;;;;4.63;0.93;;;20.60;79.20;;;;;;5070108;28;20028;-73
2021/05/10 10:28:16;;;;;;;3.50;0.80;;;20.60;78.90;;;;;;5070420;28;20031;-74
2021/05/10 10:30:46;;;;;;;4.10;1.10;;;20.60;78.60;;;;;;5070584;28;20035;-73
2021/05/10 10:33:19;;;;;;;3.45;0.77;;;20.70;78.20;;;;;;5077006;28;20024;-74
2021/05/10 10:35:47;;;;;;;2.15;0.90;;;20.70;78.00;;;;;;5078066;28;20021;-74
2021/05/10 10:38:13;;;;;;;7.90;1.38;;;20.60;77.90;;;;;;5075229;28;20098;-74
2021/05/10 10:40:39;;;;;;;3.47;0.90;;;20.70;78.00;;;;;;5073920;28;20472;-74
2021/05/10 10:43:21;;;;;;;2.00;0.93;;;20.70;78.00;;;;;;5071883;28;20461;-73
2021/05/10 10:46:25;;;;;;;3.53;0.80;;;20.70;78.10;;;;;;5071634;28;20021;-74
2021/05/10 10:48:54;;;;;;;5.25;1.50;;;20.80;77.90;;;;;;5074854;28;20025;-75
2021/05/10 10:51:20;;;;;;;3.08;0.88;;;20.90;77.70;;;;;;5073412;28;20028;-74
2021/05/10 10:53:47;;;;;;;8.13;1.75;;;21.00;77.40;;;;;;5073193;28;20052;-76
2021/05/10 10:56:13;;;;;;;7.47;1.40;;;21.00;77.40;;;;;;5073394;28;20540;-76
2021/05/10 10:58:41;;;;;;;5.70;2.42;;;21.10;77.00;;;;;;5070426;28;20060;-76
2021/05/10 11:01:21;;;;;;;6.65;2.53;;;21.20;77.00;;;;;;5072929;28;20051;-76
2021/05/10 11:03:48;;;;;;;6.13;2.10;;;21.20;77.70;;;;;;5070796;28;20032;-75
2021/05/10 11:06:15;;;;;;;6.28;2.33;;;21.20;77.50;;;;;;5072843;28;20047;-74
2021/05/10 11:08:44;;;;;;;9.25;2.90;;;21.30;77.50;;;;;;5072363;28;20055;-76
2021/05/10 11:11:12;;;;;;;6.60;2.45;;;21.40;77.40;;;;;;5073750;28;20107;-75
2021/05/10 11:13:42;;;;;;;4.78;2.15;;;21.50;78.20;;;;;;5074133;28;20540;-75
2021/05/10 11:16:14;;;;;;;4.72;2.00;;;21.50;78.80;;;;;;5074204;28;20063;-75
2021/05/10 11:18:55;;;;;;;7.25;2.33;;;21.60;78.90;;;;;;5074299;28;20365;-75
2021/05/10 11:21:23;;;;;;;14.95;3.15;;;21.60;78.50;;;;;;5072368;28;20451;-79
2021/05/10 11:23:54;;;;;;;6.90;2.00;;;21.50;77.80;;;;;;5073681;28;20020;-79
2021/05/10 11:26:52;;;;;;;6.22;2.00;;;21.40;78.30;;;;;;5073239;28;20025;-77
2021/05/10 11:29:24;;;;;;;8.45;1.75;;;21.40;79.90;;;;;;5073366;28;20072;-77
2021/05/10 11:31:54;;;;;;;8.00;1.90;;;21.30;80.00;;;;;;5074076;28;20024;-77
2021/05/10 11:34:34;;;;;;;7.63;1.70;;;21.30;79.90;;;;;;5073384;28;20028;-77
2021/05/10 11:37:00;;;;;;;5.78;1.77;;;21.30;77.60;;;;;;5073395;28;20407;-77
2021/05/10 11:39:38;;;;;;;4.85;1.60;;;21.30;79.00;;;;;;5073409;28;20488;-77
2021/05/10 11:42:07;;;;;;;7.22;1.80;;;21.40;79.30;;;;;;5073044;28;20052;-77
2021/05/10 11:44:34;;;;;;;3.60;1.40;;;21.40;78.70;;;;;;5073134;28;20032;-77
2021/05/10 11:47:02;;;;;;;6.20;1.48;;;21.50;78.60;;;;;;5073516;28;20025;-78
2021/05/10 11:49:39;;;;;;;6.00;1.70;;;21.40;78.70;;;;;;5072671;28;20028;-76
2021/05/10 11:52:08;;;;;;;4.25;1.40;;;21.40;78.90;;;;;;5071711;28;20101;-76
2021/05/10 11:54:35;;;;;;;6.55;1.90;;;21.50;77.90;;;;;;5073367;28;20420;-75
2021/05/10 11:57:04;;;;;;;4.72;1.60;;;21.50;78.20;;;;;;5072317;28;20031;-76
2021/05/10 12:02:09;;;;;;;7.40;1.60;;;21.60;77.70;;;;;;5073373;28;20027;-75
2021/05/10 12:04:38;;;;;;;6.57;1.58;;;21.60;77.70;;;;;;5073141;28;20028;-76
2021/05/10 12:07:04;;;;;;;4.60;1.52;;;21.60;77.60;;;;;;5073096;28;20036;-76
2021/05/10 12:09:30;;;;;;;5.45;1.25;;;21.60;77.70;;;;;;5073045;28;20051;-77
2021/05/10 12:11:56;;;;;;;7.15;1.50;;;21.60;76.70;;;;;;5073222;28;20473;-76
2021/05/10 12:14:22;;;;;;;5.07;1.70;;;21.70;76.80;;;;;;5072765;28;20130;-78
2021/05/10 12:17:23;;;;;;;5.78;1.77;;;21.70;76.40;;;;;;5072925;28;20032;-78
2021/05/10 12:20:12;;;;;;;5.72;1.73;;;21.70;75.70;;;;;;5040878;28;20039;-78
2021/05/10 12:22:42;;;;;;;4.90;1.92;;;21.80;75.60;;;;;;5072413;28;20033;-78
2021/05/10 12:25:24;;;;;;;5.45;1.33;;;21.80;75.00;;;;;;5070916;28;20057;-78
2021/05/10 12:27:58;;;;;;;4.68;1.45;;;21.80;75.00;;;;;;5072997;28;20027;-78
2021/05/10 12:30:37;;;;;;;5.60;1.20;;;21.90;74.80;;;;;;5072728;28;20056;-77
2021/05/10 12:33:04;;;;;;;3.50;1.25;;;21.90;74.70;;;;;;5072372;28;20028;-78
2021/05/10 12:35:32;;;;;;;5.93;1.40;;;21.90;74.50;;;;;;5072523;28;20016;-77
2021/05/10 12:38:00;;;;;;;4.63;1.30;;;21.80;74.50;;;;;;5072904;28;20048;-78
2021/05/10 12:40:28;;;;;;;4.63;1.48;;;21.80;74.40;;;;;;5072626;28;20108;-75
2021/05/10 12:43:13;;;;;;;5.65;1.50;;;21.90;74.10;;;;;;5071239;28;20119;-78
2021/05/10 12:45:44;;;;;;;6.05;1.30;;;21.90;74.10;;;;;;5072743;28;20024;-77
2021/05/10 12:48:13;;;;;;;5.55;1.60;;;22.00;73.90;;;;;;5072976;28;20029;-79
2021/05/10 12:50:49;;;;;;;2.92;1.15;;;22.00;73.80;;;;;;5072478;28;20419;-78
2021/05/10 12:53:27;;;;;;;3.42;1.10;;;22.00;73.80;;;;;;5072049;28;20519;-77
2021/05/10 12:56:06;;;;;;;2.97;0.88;;;22.00;73.50;;;;;;5072601;28;20067;-77
2021/05/10 12:58:37;;;;;;;3.58;1.23;;;22.10;73.00;;;;;;5071958;28;20093;-76
2021/05/10 13:01:14;;;;;;;6.75;1.15;;;22.00;72.90;;;;;;5072521;28;20033;-76